Time;durP1;ratioP1;P1;durP2;ratioP2;P2;SDS_P1;SDS_P2;PMS_P1;PMS_P2;Temp;Humidity;BMP_temperature;BMP_pressure;BME280_temperature;BME280_humidity;BME280_pressure;Samples;Min_cycle;Max_cycle;Signal;HPM_P1;HPM_P2
2022/07/19 00:00:20;;;;;;;4.03;3.73;;;21.30;83.60;;;;;;6089562;23;20973;-79
2022/07/19 00:02:49;;;;;;;3.80;3.50;;;21.30;84.30;;;;;;6083613;23;20450;-79
2022/07/19 00:05:16;;;;;;;3.77;3.47;;;21.20;84.60;;;;;;6083503;23;20443;-79
2022/07/19 00:07:44;;;;;;;4.07;3.77;;;21.20;85.20;;;;;;6087129;23;20431;-79
2022/07/19 00:10:14;;;;;;;4.40;4.00;;;21.20;85.50;;;;;;6087060;23;20524;-80
2022/07/19 00:12:42;;;;;;;4.37;3.97;;;21.20;86.00;;;;;;6081043;23;20512;-79
2022/07/19 00:15:13;;;;;;;4.07;3.77;;;21.10;86.50;;;;;;6087224;23;20431;-79
2022/07/19 00:17:42;;;;;;;3.90;3.60;;;21.10;87.10;;;;;;6084505;23;20435;-79
2022/07/19 00:20:11;;;;;;;3.70;3.40;;;21.10;87.50;;;;;;6083431;23;20490;-79
2022/07/19 00:22:38;;;;;;;4.70;3.80;;;21.00;88.30;;;;;;6086418;23;20442;-79
2022/07/19 00:25:06;;;;;;;4.37;4.00;;;21.10;89.00;;;;;;6088775;23;20525;-79
2022/07/19 00:27:33;;;;;;;3.93;3.60;;;20.90;89.90;;;;;;6088002;23;20474;-79
2022/07/19 00:30:00;;;;;;;4.20;3.80;;;20.80;90.30;;;;;;6086927;23;20489;-79
2022/07/19 00:32:29;;;;;;;4.40;4.00;;;20.80;90.70;;;;;;6080740;23;20493;-79
2022/07/19 00:34:56;;;;;;;4.57;4.07;;;20.80;91.10;;;;;;6086121;23;20439;-79
2022/07/19 00:37:23;;;;;;;4.50;4.10;;;20.90;91.30;;;;;;6087021;23;20435;-79
2022/07/19 00:39:50;;;;;;;5.47;4.07;;;20.90;91.40;;;;;;6088130;23;20467;-79
2022/07/19 00:42:19;;;;;;;4.50;4.10;;;20.90;91.60;;;;;;6086093;23;20455;-79
2022/07/19 00:44:46;;;;;;;4.10;3.70;;;20.90;91.70;;;;;;6086011;23;20443;-79
2022/07/19 00:47:13;;;;;;;4.17;3.87;;;20.90;91.80;;;;;;6088761;23;20524;-79
2022/07/19 00:49:42;;;;;;;4.20;3.80;;;21.00;91.90;;;;;;6087955;23;20458;-79
2022/07/19 00:52:10;;;;;;;4.67;4.27;;;21.00;92.10;;;;;;6082704;23;20524;-79
2022/07/19 00:54:40;;;;;;;4.40;4.00;;;21.00;92.30;;;;;;6087159;23;20481;-79
2022/07/19 00:57:07;;;;;;;4.93;4.53;;;20.90;92.40;;;;;;6088102;23;20449;-79
2022/07/19 00:59:35;;;;;;;4.43;4.00;;;20.90;92.70;;;;;;6089576;23;20540;-79
2022/07/19 01:02:03;;;;;;;4.70;4.30;;;20.80;92.80;;;;;;6083123;23;20437;-79
2022/07/19 01:04:30;;;;;;;4.30;3.90;;;20.70;93.00;;;;;;6087537;23;20435;-79
2022/07/19 01:06:58;;;;;;;4.63;4.33;;;20.70;93.40;;;;;;6088044;23;20821;-79
2022/07/19 01:09:25;;;;;;;4.40;4.10;;;20.50;93.80;;;;;;6086945;23;20493;-79
2022/07/19 01:11:53;;;;;;;4.60;4.30;;;20.40;94.30;;;;;;6086478;23;20886;-79
2022/07/19 01:14:20;;;;;;;4.83;4.43;;;20.40;95.00;;;;;;6088281;23;20470;-79
2022/07/19 01:16:48;;;;;;;5.60;5.10;;;20.30;95.40;;;;;;6088947;23;20449;-79
2022/07/19 01:19:15;;;;;;;4.43;4.03;;;20.30;95.70;;;;;;6089435;23;20455;-79
2022/07/19 01:21:44;;;;;;;4.90;4.40;;;20.30;95.80;;;;;;6086003;23;20435;-79
2022/07/19 01:24:11;;;;;;;4.73;4.43;;;20.30;96.10;;;;;;6087721;23;20435;-79
2022/07/19 01:26:38;;;;;;;4.70;4.30;;;20.20;96.30;;;;;;6086165;23;20431;-79
2022/07/19 01:29:05;;;;;;;4.63;4.23;;;20.20;96.50;;;;;;6086221;23;20496;-79
2022/07/19 01:31:32;;;;;;;5.27;4.80;;;20.20;96.90;;;;;;6086355;23;20819;-79
2022/07/19 01:33:59;;;;;;;4.83;4.40;;;20.20;97.20;;;;;;6084459;23;20446;-79
2022/07/19 01:36:26;;;;;;;4.50;4.20;;;20.10;97.50;;;;;;6083024;23;20455;-79
2022/07/19 01:38:54;;;;;;;4.67;4.37;;;20.10;97.80;;;;;;6087976;23;20515;-79
2022/07/19 01:41:21;;;;;;;4.83;4.53;;;20.10;98.10;;;;;;6089322;23;20446;-79
2022/07/19 01:43:48;;;;;;;4.93;4.43;;;20.00;98.30;;;;;;6085522;23;20431;-79
2022/07/19 01:46:15;;;;;;;5.37;4.87;;;20.00;98.50;;;;;;6087463;23;20925;-79
2022/07/19 01:48:43;;;;;;;4.97;4.57;;;20.00;98.50;;;;;;6089101;23;20811;-79
2022/07/19 01:51:10;;;;;;;4.83;4.50;;;20.00;98.60;;;;;;6087944;23;20476;-79
2022/07/19 01:53:37;;;;;;;5.23;4.83;;;20.00;98.70;;;;;;6081112;23;20431;-79
2022/07/19 01:56:07;;;;;;;6.83;5.40;;;20.00;99.00;;;;;;6087099;23;20435;-79
2022/07/19 01:58:35;;;;;;;4.90;4.50;;;20.00;99.10;;;;;;6087747;23;20462;-79
2022/07/19 02:01:02;;;;;;;5.17;4.77;;;20.00;99.40;;;;;;6087644;23;20937;-79
2022/07/19 02:03:29;;;;;;;4.60;4.30;;;20.00;99.10;;;;;;6083141;23;20439;-79
2022/07/19 02:05:56;;;;;;;4.43;4.03;;;19.90;99.30;;;;;;6087167;23;20471;-79
2022/07/19 02:08:24;;;;;;;5.03;4.40;;;19.90;99.40;;;;;;6088608;23;20459;-79
2022/07/19 02:10:52;;;;;;;5.13;4.73;;;19.90;99.50;;;;;;6090663;23;20443;-80
2022/07/19 02:13:20;;;;;;;4.70;4.30;;;19.80;99.70;;;;;;6084470;23;20444;-79
2022/07/19 02:15:47;;;;;;;6.97;5.03;;;19.80;99.90;;;;;;6085946;23;20443;-79
2022/07/19 02:18:15;;;;;;;4.77;4.40;;;19.80;99.90;;;;;;6082771;23;20463;-79
2022/07/19 02:20:42;;;;;;;5.20;4.70;;;19.80;99.90;;;;;;6082892;23;20559;-79
2022/07/19 02:23:09;;;;;;;6.90;4.80;;;19.80;99.90;;;;;;6081410;23;20447;-78
2022/07/19 02:25:36;;;;;;;5.67;4.83;;;19.90;99.90;;;;;;6090620;23;20958;-79
2022/07/19 02:28:04;;;;;;;5.13;4.63;;;19.80;99.90;;;;;;6087932;23;21075;-79
2022/07/19 02:30:32;;;;;;;8.97;5.17;;;19.80;99.90;;;;;;6088718;23;20443;-79
2022/07/19 02:32:59;;;;;;;6.27;5.13;;;19.70;99.90;;;;;;6086172;23;20513;-80
2022/07/19 02:35:26;;;;;;;5.47;4.97;;;19.70;99.90;;;;;;6089968;23;20906;-80
2022/07/19 02:37:53;;;;;;;6.03;5.53;;;19.70;99.90;;;;;;6086336;23;20461;-79
2022/07/19 02:40:20;;;;;;;6.30;5.70;;;19.70;99.90;;;;;;6087258;23;21036;-79
2022/07/19 02:42:47;;;;;;;5.90;5.30;;;19.70;99.90;;;;;;6085414;23;20427;-79
2022/07/19 02:45:14;;;;;;;7.07;6.37;;;19.70;99.90;;;;;;6087366;23;20443;-79
2022/07/19 02:47:46;;;;;;;6.00;5.50;;;19.70;99.90;;;;;;6086591;23;20525;-79
2022/07/19 02:50:14;;;;;;;8.20;6.63;;;19.60;99.90;;;;;;6088158;23;20530;-79
2022/07/19 02:52:41;;;;;;;7.03;6.33;;;19.60;99.90;;;;;;6085370;23;20524;-79
2022/07/19 02:55:09;;;;;;;5.33;4.83;;;19.60;99.90;;;;;;6086540;23;20451;-79
2022/07/19 02:57:36;;;;;;;5.97;5.40;;;19.60;99.90;;;;;;6084394;23;20504;-79
2022/07/19 03:00:05;;;;;;;5.87;5.37;;;19.50;99.90;;;;;;6089380;23;20439;-79
2022/07/19 03:02:31;;;;;;;6.00;5.50;;;19.40;99.90;;;;;;6085519;23;20439;-79
2022/07/19 03:05:00;;;;;;;7.20;5.60;;;19.30;99.90;;;;;;6088567;23;20453;-79
2022/07/19 03:07:27;;;;;;;5.93;5.30;;;19.20;99.90;;;;;;6081577;23;20455;-79
2022/07/19 03:09:54;;;;;;;6.37;5.43;;;19.10;99.90;;;;;;6084944;23;21016;-79
2022/07/19 03:12:21;;;;;;;5.93;5.33;;;19.00;99.90;;;;;;6078256;23;20473;-79
2022/07/19 03:14:48;;;;;;;7.00;5.43;;;19.00;99.90;;;;;;6080776;23;20785;-79
2022/07/19 03:17:15;;;;;;;7.33;6.70;;;18.90;99.90;;;;;;6085842;23;20474;-79
2022/07/19 03:19:42;;;;;;;6.07;5.50;;;18.80;99.90;;;;;;6089116;23;20465;-79
2022/07/19 03:22:11;;;;;;;6.40;5.90;;;18.80;99.90;;;;;;6080346;23;21063;-79
2022/07/19 03:24:37;;;;;;;9.70;6.40;;;18.70;99.90;;;;;;6086493;23;20781;-79
2022/07/19 03:27:05;;;;;;;6.90;5.73;;;18.70;99.90;;;;;;6087716;23;20455;-79
2022/07/19 03:29:32;;;;;;;8.93;6.00;;;18.60;99.90;;;;;;6086022;23;20443;-79
2022/07/19 03:31:59;;;;;;;6.97;6.27;;;18.60;99.90;;;;;;6082334;23;20885;-79
2022/07/19 03:34:28;;;;;;;6.77;6.17;;;18.50;99.90;;;;;;6083930;23;20477;-79
2022/07/19 03:36:55;;;;;;;6.83;6.00;;;18.50;99.90;;;;;;6086418;23;20455;-79
2022/07/19 03:39:23;;;;;;;6.67;5.97;;;18.50;99.90;;;;;;6089043;23;20438;-79
2022/07/19 03:41:50;;;;;;;6.47;5.90;;;18.50;99.90;;;;;;6090040;23;20435;-80
2022/07/19 03:44:17;;;;;;;6.63;5.93;;;18.60;99.90;;;;;;6082470;23;20438;-79
2022/07/19 03:46:44;;;;;;;6.57;5.77;;;18.60;99.90;;;;;;6081708;23;20553;-79
2022/07/19 03:49:12;;;;;;;6.80;5.53;;;18.70;99.90;;;;;;6086415;23;20945;-79
2022/07/19 03:51:39;;;;;;;6.30;5.40;;;18.60;99.90;;;;;;6086520;23;21035;-79
2022/07/19 03:54:06;;;;;;;5.23;4.83;;;18.60;99.90;;;;;;6081425;23;20802;-79
2022/07/19 03:56:34;;;;;;;6.80;5.80;;;18.60;99.90;;;;;;6086032;23;20466;-79
2022/07/19 03:59:01;;;;;;;5.63;5.00;;;18.60;99.90;;;;;;6087290;23;20466;-79
2022/07/19 04:01:28;;;;;;;5.40;4.90;;;18.50;99.90;;;;;;6087286;23;20457;-79
2022/07/19 04:03:55;;;;;;;5.63;5.13;;;18.50;99.90;;;;;;6078984;23;21111;-80
2022/07/19 04:06:22;;;;;;;5.87;5.37;;;18.60;99.90;;;;;;6081684;23;21038;-79
2022/07/19 04:08:49;;;;;;;5.73;5.33;;;18.40;99.90;;;;;;6085250;23;20798;-79
2022/07/19 04:11:16;;;;;;;7.10;5.10;;;18.40;99.90;;;;;;6081561;23;20689;-79
2022/07/19 04:13:45;;;;;;;5.20;4.80;;;18.40;99.90;;;;;;6085974;23;20516;-79
2022/07/19 04:16:12;;;;;;;5.90;5.20;;;18.40;99.90;;;;;;6086880;23;20553;-79
2022/07/19 04:18:39;;;;;;;7.03;5.13;;;18.40;99.90;;;;;;6070604;23;20444;-80
2022/07/19 04:21:06;;;;;;;5.90;5.30;;;18.40;99.90;;;;;;6084135;23;20445;-79
2022/07/19 04:23:33;;;;;;;5.83;5.30;;;18.40;99.90;;;;;;6088678;23;20455;-80
2022/07/19 04:26:00;;;;;;;5.37;5.00;;;18.40;99.90;;;;;;6088778;23;20587;-79
2022/07/19 17:27:15;;;;;;;4.53;2.97;;;34.10;38.40;;;;;;6107924;23;20614;-82
2022/07/19 17:29:42;;;;;;;4.13;3.60;;;33.80;38.60;;;;;;6089038;23;20434;-82
2022/07/19 17:32:09;;;;;;;3.40;2.83;;;33.80;38.50;;;;;;6096153;23;20770;-82
2022/07/19 17:34:36;;;;;;;3.80;2.90;;;33.80;38.50;;;;;;6093985;23;20457;-82
2022/07/19 17:37:04;;;;;;;4.63;3.57;;;33.80;38.30;;;;;;6082560;23;20811;-83
2022/07/19 17:39:31;;;;;;;3.37;3.00;;;33.80;38.30;;;;;;6088169;23;20442;-83
2022/07/19 17:41:58;;;;;;;3.40;3.10;;;33.80;38.50;;;;;;6093285;23;20459;-83
2022/07/19 17:44:26;;;;;;;3.43;3.00;;;33.70;38.60;;;;;;6084828;23;20452;-82
2022/07/19 17:46:53;;;;;;;3.00;2.60;;;33.70;39.00;;;;;;6084213;23;20512;-83
2022/07/19 17:49:20;;;;;;;3.17;2.90;;;33.70;39.30;;;;;;6085739;23;21004;-82
2022/07/19 17:51:48;;;;;;;3.90;3.57;;;33.60;39.40;;;;;;6088485;23;21073;-83
2022/07/19 17:54:15;;;;;;;4.63;3.30;;;33.50;39.50;;;;;;6089146;23;20438;-86
2022/07/19 17:56:42;;;;;;;4.53;3.50;;;33.40;39.60;;;;;;6087869;23;20442;-84
2022/07/19 17:59:10;;;;;;;3.93;3.63;;;33.40;40.00;;;;;;6090931;23;20452;-82
2022/07/19 18:01:38;;;;;;;3.57;3.27;;;33.30;40.10;;;;;;6094786;23;20531;-83
2022/07/19 18:04:05;;;;;;;4.00;3.33;;;33.30;40.20;;;;;;6094769;23;20474;-83
2022/07/19 18:06:34;;;;;;;3.50;3.10;;;33.10;40.10;;;;;;6087730;23;20541;-83
2022/07/19 18:09:02;;;;;;;3.83;3.10;;;33.10;40.10;;;;;;6085572;23;20559;-83
2022/07/19 18:11:29;;;;;;;4.63;3.50;;;33.00;40.10;;;;;;6086533;23;20439;-83
2022/07/19 18:13:56;;;;;;;3.60;3.30;;;32.90;39.90;;;;;;6081331;23;20487;-83
2022/07/19 18:16:23;;;;;;;3.83;3.17;;;32.80;40.20;;;;;;6093477;23;20790;-82
2022/07/19 18:18:53;;;;;;;4.27;3.10;;;32.70;40.30;;;;;;6093988;23;20954;-82
2022/07/19 18:21:20;;;;;;;3.70;3.40;;;32.70;40.50;;;;;;6085945;23;20442;-82
2022/07/19 18:23:47;;;;;;;4.50;3.43;;;32.60;40.70;;;;;;6090586;23;20767;-82
2022/07/19 18:26:14;;;;;;;3.53;3.17;;;32.50;40.80;;;;;;6094301;23;20998;-83
2022/07/19 18:28:42;;;;;;;5.57;3.80;;;32.40;40.80;;;;;;6089154;23;20457;-82
2022/07/19 18:31:10;;;;;;;3.50;3.07;;;32.30;40.90;;;;;;6082933;23;20448;-84
2022/07/19 18:33:37;;;;;;;4.37;3.40;;;32.20;41.30;;;;;;6090283;23;20444;-83
2022/07/19 18:36:06;;;;;;;3.57;3.27;;;32.20;41.20;;;;;;6092298;23;20445;-82
2022/07/19 18:38:34;;;;;;;3.67;3.37;;;32.10;41.30;;;;;;6080568;23;20474;-83
2022/07/19 18:41:01;;;;;;;4.37;3.97;;;32.10;41.60;;;;;;6064713;23;20438;-83
2022/07/19 18:43:28;;;;;;;3.80;3.50;;;32.00;41.60;;;;;;6072197;23;20490;-84
2022/07/19 18:45:55;;;;;;;3.53;3.20;;;31.90;42.10;;;;;;6075772;23;20855;-79
2022/07/19 18:48:29;;;;;;;6.17;3.37;;;31.80;41.70;;;;;;6078943;23;20456;-78
2022/07/19 18:50:57;;;;;;;4.73;3.30;;;31.70;41.70;;;;;;6068578;23;20442;-80
2022/07/19 18:53:25;;;;;;;4.97;3.47;;;31.60;41.60;;;;;;6062728;23;20553;-80
2022/07/19 18:55:55;;;;;;;3.57;2.97;;;31.60;41.60;;;;;;6093561;23;20448;-80
2022/07/19 18:58:23;;;;;;;4.40;2.93;;;31.50;41.80;;;;;;6085396;23;20471;-80
2022/07/19 19:00:50;;;;;;;3.67;3.27;;;31.40;42.00;;;;;;6090130;23;20443;-80
2022/07/19 19:03:17;;;;;;;4.13;3.20;;;31.40;42.20;;;;;;6073020;23;20444;-80
2022/07/19 19:05:44;;;;;;;6.03;3.17;;;31.30;42.20;;;;;;6084857;23;20472;-80
2022/07/19 19:08:11;;;;;;;6.10;3.37;;;31.20;42.40;;;;;;6086524;23;20546;-80
2022/07/19 19:10:39;;;;;;;3.53;3.23;;;31.10;42.60;;;;;;6088743;23;20458;-80
2022/07/19 19:13:07;;;;;;;4.30;3.80;;;31.10;42.80;;;;;;6081400;23;20437;-77
2022/07/19 19:15:34;;;;;;;3.53;3.20;;;31.00;42.80;;;;;;6082311;23;20522;-78
2022/07/19 19:18:01;;;;;;;4.10;3.20;;;30.90;42.90;;;;;;6086778;23;20568;-78
2022/07/19 19:20:29;;;;;;;3.47;3.17;;;30.80;43.30;;;;;;6088282;23;20449;-78
2022/07/19 19:22:56;;;;;;;4.40;3.47;;;30.70;43.40;;;;;;6081413;23;20480;-79
2022/07/19 19:25:23;;;;;;;7.50;3.70;;;30.70;43.20;;;;;;6081482;23;20491;-79
2022/07/19 19:27:52;;;;;;;3.77;3.47;;;30.60;43.20;;;;;;6083028;23;20537;-80
2022/07/19 19:30:19;;;;;;;4.37;3.40;;;30.50;43.50;;;;;;6089490;23;20438;-79
2022/07/19 19:32:47;;;;;;;3.70;3.30;;;30.40;43.60;;;;;;6082680;23;20488;-80
2022/07/19 19:35:15;;;;;;;4.30;3.90;;;30.40;43.80;;;;;;6075049;23;20476;-79
2022/07/19 19:37:42;;;;;;;3.57;3.27;;;30.30;43.80;;;;;;6084714;23;20471;-79
2022/07/19 19:40:10;;;;;;;4.77;4.00;;;30.20;44.10;;;;;;6063565;23;20438;-79
2022/07/19 19:42:38;;;;;;;4.50;3.50;;;30.10;44.10;;;;;;6078572;23;20441;-80
2022/07/19 19:45:08;;;;;;;3.73;3.37;;;30.10;44.50;;;;;;6085007;23;20452;-79
2022/07/19 19:47:35;;;;;;;4.13;3.63;;;30.00;44.60;;;;;;6068087;23;20467;-78
2022/07/19 19:50:03;;;;;;;4.43;3.57;;;29.90;44.60;;;;;;6078482;23;20442;-80
2022/07/19 19:52:31;;;;;;;4.03;3.63;;;29.90;45.00;;;;;;6074102;23;20433;-79
2022/07/19 19:54:58;;;;;;;4.00;3.43;;;29.80;45.00;;;;;;6082340;23;20457;-79
2022/07/19 19:57:25;;;;;;;4.37;3.27;;;29.70;45.10;;;;;;6071380;23;20514;-78
2022/07/19 19:59:54;;;;;;;4.10;3.70;;;29.70;45.20;;;;;;6066549;23;20510;-80
2022/07/19 20:02:23;;;;;;;4.20;3.50;;;29.60;45.50;;;;;;6064189;23;20471;-79
2022/07/19 20:04:50;;;;;;;4.40;3.50;;;29.60;45.50;;;;;;6086944;23;20438;-79
2022/07/19 20:07:18;;;;;;;4.93;3.70;;;29.50;45.80;;;;;;6086636;23;20478;-78
2022/07/19 20:09:45;;;;;;;4.13;3.60;;;29.40;45.90;;;;;;6067031;23;20441;-81
2022/07/19 20:12:12;;;;;;;3.43;3.10;;;29.40;46.20;;;;;;6091769;23;20445;-80
2022/07/19 20:14:40;;;;;;;3.60;3.30;;;29.30;46.30;;;;;;6087455;23;20468;-80
2022/07/19 20:17:06;;;;;;;4.73;3.70;;;29.30;46.30;;;;;;6063457;23;20817;-81
2022/07/19 20:19:35;;;;;;;5.93;3.60;;;29.20;46.50;;;;;;6080509;23;20447;-80
2022/07/19 20:22:03;;;;;;;4.87;3.90;;;29.20;46.80;;;;;;6081218;23;20502;-81
2022/07/19 20:24:30;;;;;;;5.07;3.40;;;29.10;47.10;;;;;;6069009;23;20946;-85
2022/07/19 20:26:58;;;;;;;4.53;3.37;;;29.00;47.40;;;;;;6083986;23;20477;-83
2022/07/19 20:29:25;;;;;;;5.33;3.50;;;28.80;47.50;;;;;;6077214;23;20930;-86
2022/07/19 20:31:52;;;;;;;3.57;3.23;;;28.70;47.80;;;;;;6085714;23;20509;-84
2022/07/19 20:34:19;;;;;;;4.07;3.67;;;28.70;48.00;;;;;;6070904;23;20529;-82
2022/07/19 20:36:47;;;;;;;3.87;3.47;;;28.60;48.20;;;;;;6074876;23;20537;-83
2022/07/19 20:39:14;;;;;;;3.73;3.43;;;28.50;48.30;;;;;;6076769;23;20451;-84
2022/07/19 20:41:42;;;;;;;3.70;3.23;;;28.40;48.50;;;;;;6085786;23;20487;-84
2022/07/19 20:44:08;;;;;;;4.43;3.70;;;28.30;48.60;;;;;;6074718;23;20440;-84
2022/07/19 20:46:36;;;;;;;3.40;3.10;;;28.20;48.80;;;;;;6091870;23;20465;-84
2022/07/19 20:49:03;;;;;;;3.80;3.40;;;28.20;49.00;;;;;;6071788;23;20526;-84
2022/07/19 20:51:31;;;;;;;4.33;3.97;;;28.10;49.10;;;;;;6064262;23;20581;-84
2022/07/19 20:53:59;;;;;;;4.80;3.33;;;28.00;49.30;;;;;;6089248;23;20472;-84
2022/07/19 20:56:26;;;;;;;6.03;3.40;;;27.90;49.60;;;;;;6087813;23;20536;-84
2022/07/19 20:58:55;;;;;;;3.70;3.20;;;27.90;49.90;;;;;;6072706;23;20456;-84
2022/07/19 21:01:22;;;;;;;8.13;3.70;;;27.80;50.20;;;;;;6091751;23;20482;-84
2022/07/19 21:03:49;;;;;;;4.07;3.60;;;27.70;50.50;;;;;;6072443;23;20444;-84
2022/07/19 21:06:16;;;;;;;3.73;3.43;;;27.60;51.00;;;;;;6065110;23;20463;-84
2022/07/19 21:08:43;;;;;;;4.00;3.70;;;27.50;51.40;;;;;;6085912;23;20449;-84
2022/07/19 21:11:11;;;;;;;4.60;3.90;;;27.30;51.90;;;;;;6077415;23;20442;-84
2022/07/19 21:13:38;;;;;;;3.83;3.40;;;27.20;52.30;;;;;;6071350;23;20442;-84
2022/07/19 21:16:06;;;;;;;4.20;3.80;;;27.00;52.50;;;;;;6096175;23;20458;-84
2022/07/19 21:18:33;;;;;;;7.63;3.57;;;26.90;52.80;;;;;;6088958;23;20461;-84
2022/07/19 21:21:00;;;;;;;5.63;3.80;;;26.80;53.10;;;;;;6090165;23;20443;-84
2022/07/19 21:23:27;;;;;;;5.80;4.20;;;26.70;53.50;;;;;;6073985;23;20439;-84
2022/07/19 21:25:55;;;;;;;3.67;3.13;;;26.60;53.70;;;;;;6083325;23;20523;-84
2022/07/19 21:28:23;;;;;;;4.13;3.30;;;26.50;54.10;;;;;;6087089;23;20981;-84
2022/07/19 21:30:51;;;;;;;4.17;3.77;;;26.40;54.30;;;;;;6062654;23;20944;-84
2022/07/19 21:33:18;;;;;;;6.30;4.13;;;26.30;54.50;;;;;;6077822;23;20450;-84
2022/07/19 21:35:45;;;;;;;5.43;4.00;;;26.30;54.80;;;;;;6083445;23;20466;-84
2022/07/19 21:38:12;;;;;;;6.47;3.70;;;26.30;54.80;;;;;;6084316;23;20981;-84
2022/07/19 21:40:40;;;;;;;3.90;3.60;;;26.20;54.90;;;;;;6083137;23;20439;-84
2022/07/19 21:43:07;;;;;;;4.03;3.37;;;26.20;55.00;;;;;;6087769;23;20451;-84
2022/07/19 21:45:35;;;;;;;3.93;3.60;;;26.10;55.10;;;;;;6081171;23;20466;-84
2022/07/19 21:48:05;;;;;;;4.37;4.07;;;26.10;55.20;;;;;;6088284;23;20483;-85
2022/07/19 21:50:32;;;;;;;4.60;3.67;;;26.00;55.30;;;;;;6069261;23;20443;-84
2022/07/19 21:52:59;;;;;;;4.13;3.83;;;26.00;55.40;;;;;;6088133;23;21180;-84
2022/07/19 21:55:26;;;;;;;4.20;3.60;;;25.90;55.50;;;;;;6069784;23;20992;-84
2022/07/19 21:57:53;;;;;;;4.47;3.50;;;25.90;55.60;;;;;;6087789;23;20462;-84
2022/07/19 22:00:21;;;;;;;5.67;3.53;;;25.90;55.60;;;;;;6090884;23;20435;-84
2022/07/19 22:02:49;;;;;;;4.23;3.57;;;25.90;55.70;;;;;;6080743;23;20938;-84
2022/07/19 22:05:16;;;;;;;4.20;3.80;;;25.90;55.70;;;;;;6087075;23;20525;-84
2022/07/19 22:07:43;;;;;;;4.97;3.63;;;25.90;55.60;;;;;;6086498;23;20841;-84
2022/07/19 22:10:11;;;;;;;3.80;3.50;;;25.90;55.50;;;;;;6087388;23;20523;-84
2022/07/19 22:12:37;;;;;;;4.30;3.90;;;25.90;55.70;;;;;;6090388;23;20468;-84
2022/07/19 22:15:06;;;;;;;6.07;3.90;;;25.90;55.70;;;;;;6082215;23;20462;-84
2022/07/19 22:17:33;;;;;;;4.20;3.80;;;25.90;55.70;;;;;;6078344;23;20530;-84
2022/07/19 22:20:01;;;;;;;5.10;3.70;;;25.90;55.70;;;;;;6072123;23;20964;-84
2022/07/19 22:22:28;;;;;;;4.60;3.37;;;25.90;55.60;;;;;;6089048;23;20442;-84
2022/07/19 22:24:55;;;;;;;4.20;3.80;;;25.90;55.60;;;;;;6071097;23;20458;-84
2022/07/19 22:27:22;;;;;;;4.53;4.03;;;25.80;55.60;;;;;;6083736;23;20984;-84
2022/07/19 22:29:49;;;;;;;5.10;4.60;;;25.80;55.50;;;;;;6090423;23;20793;-84
2022/07/19 22:32:16;;;;;;;4.20;3.63;;;25.80;56.00;;;;;;6069704;23;20461;-84
2022/07/19 22:34:44;;;;;;;4.07;3.67;;;25.80;55.60;;;;;;6073482;23;20530;-84
2022/07/19 22:37:12;;;;;;;4.50;3.83;;;25.80;55.60;;;;;;6071976;23;20455;-84
2022/07/19 22:39:40;;;;;;;4.37;3.67;;;25.80;55.80;;;;;;6066411;23;20467;-84
2022/07/19 22:42:07;;;;;;;4.80;4.37;;;25.70;55.60;;;;;;6070844;23;20498;-84
2022/07/19 22:44:34;;;;;;;4.20;3.90;;;25.70;55.50;;;;;;6070886;23;20974;-84
2022/07/19 22:47:02;;;;;;;4.70;4.30;;;25.70;55.40;;;;;;6088987;23;20474;-84
2022/07/19 22:49:29;;;;;;;5.20;3.80;;;25.80;55.40;;;;;;6092778;23;20438;-84
2022/07/19 22:51:56;;;;;;;8.33;4.23;;;25.80;55.20;;;;;;6085006;23;20443;-84
2022/07/19 22:54:24;;;;;;;5.33;4.70;;;25.90;55.20;;;;;;6088471;23;20546;-84
2022/07/19 22:56:51;;;;;;;4.67;4.10;;;25.90;55.20;;;;;;6078964;23;20446;-84
2022/07/19 22:59:18;;;;;;;6.40;4.40;;;25.90;55.30;;;;;;6070776;23;20466;-85
2022/07/19 23:01:46;;;;;;;5.33;4.03;;;25.80;55.20;;;;;;6065208;23;20466;-84
2022/07/19 23:04:13;;;;;;;4.50;4.10;;;25.80;55.40;;;;;;6064936;23;20466;-84
2022/07/19 23:06:40;;;;;;;4.50;4.20;;;25.80;55.50;;;;;;6079301;23;20443;-84
2022/07/19 23:09:07;;;;;;;6.23;4.20;;;25.80;55.60;;;;;;6089473;23;20456;-84
2022/07/19 23:11:36;;;;;;;4.87;4.27;;;25.70;55.80;;;;;;6091888;23;20937;-84
2022/07/19 23:14:02;;;;;;;4.63;4.23;;;25.70;56.10;;;;;;6081954;23;21030;-84
2022/07/19 23:16:30;;;;;;;4.63;4.13;;;25.60;56.30;;;;;;6069674;23;20467;-84
2022/07/19 23:18:57;;;;;;;6.03;4.27;;;25.50;56.50;;;;;;6090428;23;20451;-84
2022/07/19 23:21:23;;;;;;;8.40;4.63;;;25.40;56.60;;;;;;6090027;23;20529;-84
2022/07/19 23:23:51;;;;;;;5.90;4.40;;;25.30;56.60;;;;;;6090320;23;21039;-84
2022/07/19 23:26:18;;;;;;;5.53;4.23;;;25.30;56.80;;;;;;6086109;23;20522;-84
2022/07/19 23:28:46;;;;;;;5.00;4.60;;;25.30;57.10;;;;;;6078030;23;20470;-84
2022/07/19 23:31:13;;;;;;;4.67;4.17;;;25.20;57.20;;;;;;6068618;23;20442;-84
2022/07/19 23:33:40;;;;;;;5.00;4.60;;;25.10;57.40;;;;;;6088776;23;20492;-84
2022/07/19 23:36:08;;;;;;;4.60;4.20;;;25.10;57.60;;;;;;6078858;23;20439;-84
2022/07/19 23:38:35;;;;;;;4.47;4.07;;;25.00;57.60;;;;;;6088233;23;20446;-84
2022/07/19 23:41:02;;;;;;;5.83;4.60;;;25.00;57.70;;;;;;6064511;23;20447;-84
2022/07/19 23:43:30;;;;;;;4.93;4.50;;;25.00;57.60;;;;;;6079906;23;20517;-84
2022/07/19 23:45:58;;;;;;;7.43;4.90;;;25.00;57.70;;;;;;6089350;23;20517;-84
2022/07/19 23:48:25;;;;;;;4.70;4.27;;;25.00;57.70;;;;;;6063471;23;20468;-84
2022/07/19 23:50:53;;;;;;;4.77;4.40;;;25.00;57.80;;;;;;6087076;23;21113;-84
2022/07/19 23:53:20;;;;;;;5.70;5.03;;;25.00;57.90;;;;;;6095128;23;20512;-84
2022/07/19 23:55:47;;;;;;;6.57;4.30;;;24.90;58.00;;;;;;6078148;23;20523;-84
2022/07/19 23:58:15;;;;;;;5.20;4.70;;;24.90;58.30;;;;;;6091263;23;20945;-84
